Time;durP1;ratioP1;P1;durP2;ratioP2;P2;SDS_P1;SDS_P2;PMS_P1;PMS_P2;Temp;Humidity;BMP_temperature;BMP_pressure;BME280_temperature;BME280_humidity;BME280_pressure;Samples;Min_cycle;Max_cycle;Signal;HPM_P1;HPM_P2
2022/05/09 00:00:07;;;;;;;;;;;;;;;10.14;100.00;100500.29;1655731;87;20106;-73
2022/05/09 00:02:36;;;;;;;;;;;;;;;10.10;100.00;100494.35;1653080;87;20495;-72
2022/05/09 00:05:03;;;;;;;;;;;;;;;10.06;100.00;100495.67;1656230;87;20118;-71
2022/05/09 00:07:32;;;;;;;;;;;;;;;10.02;100.00;100490.22;1656036;87;20214;-72
2022/05/09 00:10:01;;;;;;;;;;;;;;;9.99;100.00;100497.31;1656502;87;20149;-71
2022/05/09 00:12:27;;;;;;;;;;;;;;;9.94;100.00;100492.88;1656410;87;20114;-71
2022/05/09 00:14:54;;;;;;;;;;;;;;;9.88;100.00;100491.65;1637425;87;20116;-70
2022/05/09 00:17:22;;;;;;;;;;;;;;;9.84;100.00;100484.36;1629482;88;20163;-71
2022/05/09 00:19:49;;;;;;;;;;;;;;;9.82;100.00;100485.50;1629461;88;20135;-71
2022/05/09 00:22:17;;;;;;;;;;;;;;;9.80;100.00;100487.52;1629293;88;20249;-72
2022/05/09 00:24:44;;;;;;;;;;;;;;;9.78;100.00;100490.37;1645294;86;20184;-72
2022/05/09 00:27:11;;;;;;;;;;;;;;;9.74;100.00;100480.89;1659969;86;20197;-72
2022/05/09 00:29:38;;;;;;;;;;;;;;;9.71;100.00;100481.70;1636435;88;20104;-72
2022/05/09 00:32:06;;;;;;;;;;;;;;;9.66;100.00;100476.24;1671059;85;20151;-71
2022/05/09 00:34:37;;;;;;;;;;;;;;;9.62;100.00;100475.38;1661268;86;20114;-72
2022/05/09 00:37:02;;;;;;;;;;;;;;;9.59;100.00;100476.52;1662095;86;20121;-72
2022/05/09 00:39:28;;;;;;;;;;;;;;;9.57;100.00;100474.47;1627123;88;20141;-72
2022/05/09 00:42:10;;;;;;;;;;;;;;;9.53;100.00;100464.99;1671464;86;20129;-71
2022/05/09 00:44:38;;;;;;;;;;;;;;;9.50;100.00;100467.48;1671882;86;20133;-71
2022/05/09 00:47:04;;;;;;;;;;;;;;;9.47;100.00;100466.94;1671817;86;20430;-71
2022/05/09 00:49:43;;;;;;;;;;;;;;;9.46;100.00;100466.10;1671209;85;20133;-71
2022/05/09 00:52:14;;;;;;;;;;;;;;;9.43;100.00;100460.16;1671322;86;20153;-72
2022/05/09 00:54:46;;;;;;;;;;;;;;;9.41;100.00;100462.17;1671178;86;20442;-71
2022/05/09 00:57:19;;;;;;;;;;;;;;;9.39;100.00;100454.73;1650561;87;20163;-70
2022/05/09 00:59:46;;;;;;;;;;;;;;;9.36;100.00;100448.28;1647724;86;20151;-72
2022/05/09 01:02:15;;;;;;;;;;;;;;;9.33;100.00;100453.98;1650850;86;20144;-69
2022/05/09 01:04:48;;;;;;;;;;;;;;;9.29;100.00;100452.92;1650853;87;20119;-71
2022/05/09 01:07:15;;;;;;;;;;;;;;;9.25;100.00;100446.15;1650532;87;20475;-71
2022/05/09 01:09:42;;;;;;;;;;;;;;;9.21;100.00;100453.38;1650853;87;20428;-71
2022/05/09 01:12:10;;;;;;;;;;;;;;;9.17;100.00;100451.48;1650786;87;20163;-71
2022/05/09 01:14:39;;;;;;;;;;;;;;;9.13;100.00;100450.91;1650795;87;20127;-70
2022/05/09 01:17:05;;;;;;;;;;;;;;;9.11;100.00;100449.38;1650554;87;20432;-70
2022/05/09 01:22:07;;;;;;;;;;;;;;;9.03;100.00;100447.44;1548324;93;20448;-71
2022/05/09 01:24:33;;;;;;;;;;;;;;;9.00;100.00;100438.80;1545826;93;20153;-70
2022/05/09 01:27:01;;;;;;;;;;;;;;;8.97;100.00;100446.68;1548490;93;20116;-72
2022/05/09 01:29:40;;;;;;;;;;;;;;;8.93;100.00;100447.48;1548563;93;20136;-72
2022/05/09 01:32:09;;;;;;;;;;;;;;;8.88;100.00;100445.73;1548414;93;20184;-72
2022/05/09 01:34:36;;;;;;;;;;;;;;;8.84;100.00;100439.45;1547828;91;20224;-70
2022/05/09 01:37:04;;;;;;;;;;;;;;;8.79;100.00;100440.41;1547161;93;20157;-71
2022/05/09 01:39:32;;;;;;;;;;;;;;;8.74;100.00;100438.14;1536974;92;20121;-71
2022/05/09 01:42:01;;;;;;;;;;;;;;;8.71;100.00;100437.09;1528463;94;20137;-70
2022/05/09 01:44:28;;;;;;;;;;;;;;;8.67;100.00;100431.14;1528003;93;20122;-71
2022/05/09 01:49:40;;;;;;;;;;;;;;;8.63;100.00;100424.36;1535949;93;20448;-72
2022/05/09 01:52:08;;;;;;;;;;;;;;;8.61;100.00;100421.48;1535928;94;20131;-72
2022/05/09 01:54:35;;;;;;;;;;;;;;;8.58;100.00;100420.42;1536706;93;20136;-71
2022/05/09 01:57:02;;;;;;;;;;;;;;;8.53;100.00;100416.81;1536939;93;20115;-72
2022/05/09 01:59:31;;;;;;;;;;;;;;;8.50;100.00;100422.52;1536756;93;20127;-71
2022/05/09 02:02:03;;;;;;;;;;;;;;;8.47;100.00;100416.08;1537125;93;20131;-71
2022/05/09 02:04:30;;;;;;;;;;;;;;;8.43;100.00;100418.70;1518887;93;20148;-71
2022/05/09 02:06:57;;;;;;;;;;;;;;;8.40;100.00;100414.44;1537011;93;20115;-71
2022/05/09 02:09:25;;;;;;;;;;;;;;;8.38;100.00;100414.25;1536961;93;20392;-70
2022/05/09 02:11:52;;;;;;;;;;;;;;;8.34;100.00;100413.69;1536897;93;20127;-72
2022/05/09 02:14:19;;;;;;;;;;;;;;;8.32;100.00;100414.31;1537192;93;20423;-73
2022/05/09 02:16:46;;;;;;;;;;;;;;;8.30;100.00;100410.41;1537338;93;20108;-70
2022/05/09 02:19:13;;;;;;;;;;;;;;;8.28;100.00;100409.72;1608145;87;20137;-72
2022/05/09 02:21:40;;;;;;;;;;;;;;;8.28;100.00;100411.56;1648517;87;20145;-72
2022/05/09 02:24:07;;;;;;;;;;;;;;;8.26;100.00;100402.28;1648433;86;20411;-71
2022/05/09 02:26:34;;;;;;;;;;;;;;;8.25;100.00;100400.60;1648514;87;20105;-71
2022/05/09 02:29:01;;;;;;;;;;;;;;;8.25;100.00;100403.30;1648534;86;20417;-72
2022/05/09 02:31:30;;;;;;;;;;;;;;;8.26;100.00;100406.83;1648643;87;20169;-72
2022/05/09 02:33:56;;;;;;;;;;;;;;;8.25;100.00;100399.25;1650839;86;20130;-71
2022/05/09 02:36:23;;;;;;;;;;;;;;;8.25;100.00;100397.91;1672991;85;20402;-72
2022/05/09 02:38:50;;;;;;;;;;;;;;;8.25;100.00;100397.91;1672646;86;20105;-70
2022/05/09 02:41:17;;;;;;;;;;;;;;;8.24;100.00;100402.94;1682376;85;20104;-72
2022/05/09 02:43:44;;;;;;;;;;;;;;;8.23;100.00;100399.87;1682544;85;20107;-71
2022/05/09 02:46:11;;;;;;;;;;;;;;;8.24;100.00;100402.94;1682291;85;20100;-71
2022/05/09 02:48:39;;;;;;;;;;;;;;;8.23;100.00;100401.22;1682399;85;20160;-71
2022/05/09 02:51:06;;;;;;;;;;;;;;;8.25;100.00;100407.81;1682252;85;20119;-71
2022/05/09 02:53:33;;;;;;;;;;;;;;;8.26;100.00;100406.33;1681978;85;20132;-71
2022/05/09 02:56:00;;;;;;;;;;;;;;;8.27;100.00;100403.99;1681683;85;20408;-71
2022/05/09 02:58:27;;;;;;;;;;;;;;;8.26;100.00;100407.67;1681523;85;20104;-71
2022/05/09 03:00:55;;;;;;;;;;;;;;;8.27;100.00;100410.73;1681695;85;20107;-72
2022/05/09 03:06:08;;;;;;;;;;;;;;;8.29;100.00;100405.20;1681824;85;20137;-71
2022/05/09 03:08:35;;;;;;;;;;;;;;;8.30;100.00;100410.92;1681697;85;20116;-71
2022/05/09 03:11:02;;;;;;;;;;;;;;;8.30;100.00;100406.87;1681523;85;20108;-71
2022/05/09 03:13:30;;;;;;;;;;;;;;;8.28;100.00;100402.98;1681543;85;20107;-70
2022/05/09 03:15:58;;;;;;;;;;;;;;;8.29;100.00;100397.95;1681531;85;20108;-71
2022/05/09 03:18:25;;;;;;;;;;;;;;;8.29;100.00;100397.11;1681782;85;20132;-71
2022/05/09 03:20:52;;;;;;;;;;;;;;;8.29;100.00;100397.95;1681616;85;20429;-70
2022/05/09 03:23:19;;;;;;;;;;;;;;;8.29;100.00;100389.87;1681684;85;20159;-71
2022/05/09 03:25:46;;;;;;;;;;;;;;;8.28;100.00;100389.51;1681974;85;20135;-71
2022/05/09 03:28:15;;;;;;;;;;;;;;;8.28;100.00;100388.67;1681432;85;20104;-71
2022/05/09 03:30:44;;;;;;;;;;;;;;;8.30;100.00;100383.98;1681370;85;20108;-71
2022/05/09 03:33:11;;;;;;;;;;;;;;;8.32;100.00;100384.67;1681430;84;20143;-71
2022/05/09 03:35:38;;;;;;;;;;;;;;;8.34;100.00;100383.55;1663563;85;20142;-71
2022/05/09 03:38:05;;;;;;;;;;;;;;;8.41;100.00;100382.46;1659625;86;20466;-71
2022/05/09 03:40:33;;;;;;;;;;;;;;;8.45;100.00;100386.58;1658833;86;20165;-70
2022/05/09 03:43:01;;;;;;;;;;;;;;;8.49;100.00;100389.82;1659040;86;20134;-71
2022/05/09 03:45:28;;;;;;;;;;;;;;;8.53;100.00;100388.52;1615436;89;20143;-71
2022/05/09 03:47:55;;;;;;;;;;;;;;;8.60;100.00;100389.61;1672168;86;20136;-71
2022/05/09 03:50:22;;;;;;;;;;;;;;;8.65;100.00;100392.71;1672856;86;20386;-71
2022/05/09 03:52:51;;;;;;;;;;;;;;;8.73;100.00;100385.23;1672464;86;20141;-71
2022/05/09 03:55:18;;;;;;;;;;;;;;;8.79;100.00;100388.66;1672784;86;20149;-73
2022/05/09 03:57:52;;;;;;;;;;;;;;;8.87;100.00;100391.47;1673040;86;20117;-71
2022/05/09 04:00:21;;;;;;;;;;;;;;;8.95;100.00;100392.05;1672748;86;20125;-71
2022/05/09 04:02:48;;;;;;;;;;;;;;;9.05;100.00;100390.14;1672870;86;20427;-71
2022/05/09 04:05:18;;;;;;;;;;;;;;;9.14;100.00;100399.17;1672838;86;20129;-71
2022/05/09 04:07:51;;;;;;;;;;;;;;;9.25;100.00;100390.00;1672556;86;20117;-72
2022/05/09 04:10:22;;;;;;;;;;;;;;;9.35;100.00;100382.67;1657391;87;20118;-72
2022/05/09 04:12:50;;;;;;;;;;;;;;;9.45;100.00;100381.23;1656847;87;20136;-71
2022/05/09 04:18:02;;;;;;;;;;;;;;;9.69;100.00;100380.08;1657174;87;20107;-72
2022/05/09 04:20:29;;;;;;;;;;;;;;;9.85;100.00;100379.86;1657438;87;20174;-71
2022/05/09 04:22:57;;;;;;;;;;;;;;;10.03;100.00;100386.56;1656902;87;20107;-72
2022/05/09 04:25:24;;;;;;;;;;;;;;;10.19;100.00;100384.47;1657639;87;20122;-72
2022/05/09 04:27:51;;;;;;;;;;;;;;;10.32;100.00;100379.48;1657247;87;20428;-72
2022/05/09 04:30:18;;;;;;;;;;;;;;;10.48;100.00;100381.94;1657126;87;20267;-71
2022/05/09 04:32:45;;;;;;;;;;;;;;;10.66;100.00;100380.48;1657056;87;20119;-72
2022/05/09 04:35:17;;;;;;;;;;;;;;;10.85;100.00;100380.20;1656303;87;20153;-72
2022/05/09 04:37:44;;;;;;;;;;;;;;;11.07;100.00;100382.82;1652174;87;20132;-70
2022/05/09 04:40:11;;;;;;;;;;;;;;;11.26;100.00;100376.26;1654778;86;20122;-71
2022/05/09 04:42:38;;;;;;;;;;;;;;;11.45;100.00;100378.30;1654448;87;20136;-72
2022/05/09 04:45:06;;;;;;;;;;;;;;;11.64;100.00;100379.31;1654304;87;20094;-72
2022/05/09 04:47:35;;;;;;;;;;;;;;;11.85;100.00;100380.14;1655261;87;20447;-72
2022/05/09 04:50:02;;;;;;;;;;;;;;;12.05;100.00;100371.16;1655790;87;20106;-71
2022/05/09 04:52:29;;;;;;;;;;;;;;;12.23;100.00;100373.66;1655866;87;20228;-71
2022/05/09 04:54:56;;;;;;;;;;;;;;;12.37;100.00;100372.61;1655999;87;20114;-72
2022/05/09 04:57:23;;;;;;;;;;;;;;;12.55;100.00;100379.98;1656067;87;20111;-72
2022/05/09 04:59:50;;;;;;;;;;;;;;;12.75;100.00;100374.13;1655797;87;20126;-70
2022/05/09 05:02:16;;;;;;;;;;;;;;;13.01;100.00;100373.31;1656078;87;20153;-71
2022/05/09 05:04:43;;;;;;;;;;;;;;;13.29;100.00;100374.16;1655712;87;20114;-71
2022/05/09 05:07:11;;;;;;;;;;;;;;;13.48;100.00;100372.87;1658030;87;20142;-72
2022/05/09 05:09:37;;;;;;;;;;;;;;;13.68;100.00;100368.60;1659746;86;20402;-72
2022/05/09 05:12:06;;;;;;;;;;;;;;;13.92;100.00;100373.50;1659187;87;20118;-72
2022/05/09 05:14:32;;;;;;;;;;;;;;;14.12;100.00;100378.41;1658832;87;20141;-72
2022/05/09 05:16:59;;;;;;;;;;;;;;;14.24;100.00;100375.03;1658791;87;20189;-72
2022/05/09 05:19:33;;;;;;;;;;;;;;;14.43;100.00;100365.47;1659261;86;20158;-71
2022/05/09 05:22:01;;;;;;;;;;;;;;;14.66;100.00;100374.08;1659367;87;20134;-72
2022/05/09 05:24:28;;;;;;;;;;;;;;;14.91;100.00;100367.78;1659953;87;20149;-73
2022/05/09 05:26:56;;;;;;;;;;;;;;;15.14;100.00;100370.34;1658943;86;20465;-71
2022/05/09 05:29:23;;;;;;;;;;;;;;;15.38;100.00;100369.10;1659522;86;20122;-71
2022/05/09 05:31:52;;;;;;;;;;;;;;;15.61;100.00;100363.98;1659777;86;20149;-71
2022/05/09 05:34:19;;;;;;;;;;;;;;;15.80;100.00;100369.84;1659021;86;20149;-71
2022/05/09 05:36:46;;;;;;;;;;;;;;;16.00;100.00;100367.27;1658569;87;20134;-73
2022/05/09 05:39:16;;;;;;;;;;;;;;;16.23;100.00;100374.66;1658247;86;20157;-72
2022/05/09 05:41:43;;;;;;;;;;;;;;;16.44;100.00;100365.54;1662754;86;20138;-73
2022/05/09 05:44:13;;;;;;;;;;;;;;;16.72;100.00;100362.44;1653598;86;20105;-72
2022/05/09 05:46:41;;;;;;;;;;;;;;;16.94;100.00;100364.00;1655039;86;20487;-74
2022/05/09 05:49:10;;;;;;;;;;;;;;;17.10;100.00;100358.69;1671008;86;20126;-70
2022/05/09 05:51:37;;;;;;;;;;;;;;;17.27;100.00;100368.20;1670336;86;20146;-71
2022/05/09 05:54:05;;;;;;;;;;;;;;;17.47;100.00;100361.92;1667178;86;20415;-72
2022/05/09 05:56:36;;;;;;;;;;;;;;;17.60;99.35;100351.00;1670529;86;20111;-73
2022/05/09 05:59:01;;;;;;;;;;;;;;;17.81;97.41;100351.83;1670828;86;20400;-73
2022/05/09 06:01:28;;;;;;;;;;;;;;;17.98;100.00;100345.44;1670808;86;20131;-71
2022/05/09 06:03:55;;;;;;;;;;;;;;;18.08;100.00;100341.75;1671011;86;20119;-73
2022/05/09 06:06:22;;;;;;;;;;;;;;;18.18;100.00;100346.77;1655620;85;20106;-71
2022/05/09 06:08:49;;;;;;;;;;;;;;;18.27;100.00;100339.17;1644369;87;20130;-75
2022/05/09 06:11:16;;;;;;;;;;;;;;;18.35;99.47;100336.22;1644194;87;20110;-74
2022/05/09 06:13:43;;;;;;;;;;;;;;;18.56;99.16;100335.09;1642697;87;20189;-72
2022/05/09 06:16:10;;;;;;;;;;;;;;;18.73;99.78;100336.80;1643610;87;20137;-72
2022/05/09 06:18:37;;;;;;;;;;;;;;;18.89;99.85;100337.72;1644418;87;20145;-71
2022/05/09 06:21:05;;;;;;;;;;;;;;;19.10;97.05;100331.58;1644496;87;20442;-70
2022/05/09 06:23:32;;;;;;;;;;;;;;;19.26;96.20;100337.07;1644010;87;20106;-72
2022/05/09 06:26:01;;;;;;;;;;;;;;;19.30;96.04;100339.67;1644184;87;20153;-71
2022/05/09 06:28:27;;;;;;;;;;;;;;;19.42;97.48;100341.17;1644250;87;20174;-70
2022/05/09 06:30:54;;;;;;;;;;;;;;;19.62;96.24;100335.53;1644333;87;20102;-72
2022/05/09 06:33:23;;;;;;;;;;;;;;;19.81;96.45;100337.30;1643875;87;20161;-71
2022/05/09 06:35:50;;;;;;;;;;;;;;;20.03;93.15;100333.62;1633149;88;20133;-71
2022/05/09 06:38:18;;;;;;;;;;;;;;;20.24;91.25;100326.86;1634700;87;20446;-70
2022/05/09 06:40:46;;;;;;;;;;;;;;;20.32;89.63;100329.83;1647982;86;20434;-70
2022/05/09 06:43:13;;;;;;;;;;;;;;;20.50;90.62;100326.23;1661639;86;20199;-71
2022/05/09 06:45:41;;;;;;;;;;;;;;;20.69;88.29;100328.47;1661297;86;20173;-70
2022/05/09 06:48:08;;;;;;;;;;;;;;;20.79;88.00;100327.40;1639908;86;20151;-70
2022/05/09 06:50:35;;;;;;;;;;;;;;;20.99;87.33;100322.16;1633259;88;20136;-70
2022/05/09 06:53:04;;;;;;;;;;;;;;;21.10;86.21;100315.03;1632530;88;20108;-71
2022/05/09 06:55:31;;;;;;;;;;;;;;;21.25;85.42;100314.07;1631916;88;20100;-71
2022/05/09 06:57:59;;;;;;;;;;;;;;;21.40;83.15;100317.19;1633481;88;20318;-70
2022/05/09 07:00:26;;;;;;;;;;;;;;;21.70;84.08;100309.44;1632501;88;20104;-71
2022/05/09 07:02:53;;;;;;;;;;;;;;;22.07;79.61;100307.83;1632749;87;20105;-71
2022/05/09 07:05:21;;;;;;;;;;;;;;;22.28;78.80;100311.08;1632255;88;20112;-71
2022/05/09 07:07:48;;;;;;;;;;;;;;;22.53;77.03;100311.61;1632794;88;20120;-72
2022/05/09 07:10:14;;;;;;;;;;;;;;;22.72;75.74;100308.70;1632972;88;20136;-71
2022/05/09 07:12:48;;;;;;;;;;;;;;;22.82;73.91;100308.88;1633575;88;20120;-68
2022/05/09 07:15:18;;;;;;;;;;;;;;;22.85;73.27;100302.05;1634524;88;20120;-69
2022/05/09 07:17:50;;;;;;;;;;;;;;;22.91;73.67;100298.30;1606425;89;20153;-71
2022/05/09 07:20:17;;;;;;;;;;;;;;;23.13;72.83;100300.68;1605369;89;20149;-71
2022/05/09 07:22:55;;;;;;;;;;;;;;;23.37;70.57;100293.64;1605689;89;20107;-71
2022/05/09 07:25:22;;;;;;;;;;;;;;;23.52;66.58;100290.31;1586137;91;20138;-70
2022/05/09 07:27:50;;;;;;;;;;;;;;;23.46;65.91;100281.64;1586060;91;20152;-68
2022/05/09 07:30:21;;;;;;;;;;;;;;;23.46;61.92;100286.64;1585951;91;20410;-69
2022/05/09 07:32:48;;;;;;;;;;;;;;;23.63;60.99;100283.03;1535087;93;20385;-68
2022/05/09 07:35:15;;;;;;;;;;;;;;;23.94;59.40;100273.86;1547381;92;20158;-68
2022/05/09 07:37:46;;;;;;;;;;;;;;;24.16;56.48;100277.49;1538256;93;20205;-71
2022/05/09 07:40:15;;;;;;;;;;;;;;;24.30;54.46;100277.13;1536978;93;20142;-69
2022/05/09 07:42:44;;;;;;;;;;;;;;;24.47;55.33;100269.61;1530646;94;20154;-69
2022/05/09 07:45:12;;;;;;;;;;;;;;;24.78;54.96;100270.81;1530232;94;20146;-68
2022/05/09 07:47:39;;;;;;;;;;;;;;;25.12;53.27;100267.83;1517138;94;20142;-70
2022/05/09 07:50:07;;;;;;;;;;;;;;;25.21;51.11;100269.58;1504649;95;20198;-69
2022/05/09 07:52:35;;;;;;;;;;;;;;;25.17;50.96;100267.88;1506090;95;20414;-70
2022/05/09 07:55:04;;;;;;;;;;;;;;;25.14;49.78;100273.11;1505980;95;20153;-70
2022/05/09 07:57:31;;;;;;;;;;;;;;;25.04;49.20;100269.71;1506065;95;20426;-70
2022/05/09 07:59:59;;;;;;;;;;;;;;;25.02;49.66;100280.20;1505579;94;20814;-70
2022/05/09 08:02:25;;;;;;;;;;;;;;;25.23;50.99;100274.85;1505717;95;20178;-71
2022/05/09 08:04:52;;;;;;;;;;;;;;;25.48;49.78;100275.12;1506359;95;20410;-71
2022/05/09 08:07:19;;;;;;;;;;;;;;;25.43;48.77;100272.30;1505836;95;20153;-71
2022/05/09 08:09:49;;;;;;;;;;;;;;;25.47;49.89;100272.61;1506311;95;20106;-71
2022/05/09 08:12:15;;;;;;;;;;;;;;;25.57;50.44;100269.92;1505840;95;20151;-70
2022/05/09 08:14:43;;;;;;;;;;;;;;;25.64;49.84;100267.77;1536965;90;20189;-70
2022/05/09 08:17:11;;;;;;;;;;;;;;;25.75;50.29;100267.28;1563408;92;20153;-72
2022/05/09 08:19:39;;;;;;;;;;;;;;;25.92;49.68;100272.11;1563614;92;20159;-70
2022/05/09 08:22:07;;;;;;;;;;;;;;;26.03;49.63;100269.41;1581626;90;20187;-72
2022/05/09 08:24:36;;;;;;;;;;;;;;;26.02;48.16;100263.04;1591479;90;20413;-69
2022/05/09 08:27:04;;;;;;;;;;;;;;;26.04;48.82;100259.44;1591367;90;20148;-70
2022/05/09 08:29:32;;;;;;;;;;;;;;;26.17;48.88;100260.06;1591506;90;20156;-70
2022/05/09 08:31:58;;;;;;;;;;;;;;;26.42;48.26;100262.96;1591791;90;20151;-71
2022/05/09 08:34:25;;;;;;;;;;;;;;;26.69;47.70;100250.87;1599140;89;20172;-72
2022/05/09 08:36:56;;;;;;;;;;;;;;;26.96;47.20;100253.98;1652075;86;20165;-72
2022/05/09 08:39:26;;;;;;;;;;;;;;;27.22;46.68;100257.06;1661392;86;20106;-69
2022/05/09 08:42:05;;;;;;;;;;;;;;;27.40;45.53;100245.98;1662017;86;20137;-70
2022/05/09 08:45:00;;;;;;;;;;;;;;;27.38;44.93;100257.11;1661955;86;20125;-71
2022/05/09 08:47:49;;;;;;;;;;;;;;;27.27;45.16;100254.32;1662424;86;20141;-71
2022/05/09 08:50:26;;;;;;;;;;;;;;;27.08;45.01;100257.33;1663586;86;20426;-70
2022/05/09 08:53:01;;;;;;;;;;;;;;;26.82;44.62;100249.52;1663581;86;20134;-70
2022/05/09 08:55:33;;;;;;;;;;;;;;;26.72;46.31;100250.34;1664094;86;20426;-70
2022/05/09 08:58:03;;;;;;;;;;;;;;;26.82;46.82;100250.91;1663917;86;20161;-70
2022/05/09 09:00:30;;;;;;;;;;;;;;;26.95;46.18;100250.92;1663998;86;20145;-69
2022/05/09 09:03:03;;;;;;;;;;;;;;;27.05;46.87;100250.94;1663251;86;20141;-70
2022/05/09 09:05:33;;;;;;;;;;;;;;;27.04;46.02;100244.56;1664196;86;20137;-72
2022/05/09 09:08:31;;;;;;;;;;;;;;;27.05;46.72;100242.05;1663022;86;21000;-73
2022/05/09 09:11:10;;;;;;;;;;;;;;;26.96;46.26;100239.55;1663354;86;20165;-72
2022/05/09 09:13:50;;;;;;;;;;;;;;;26.65;48.74;100238.11;1662080;86;20486;-71
2022/05/09 09:16:29;;;;;;;;;;;;;;;26.76;48.38;100236.76;1662759;86;20164;-72
2022/05/09 09:19:11;;;;;;;;;;;;;;;26.82;50.06;100239.80;1662592;86;20160;-70
2022/05/09 09:24:48;;;;;;;;;;;;;;;27.14;49.21;100251.23;1565258;91;20244;-71
2022/05/09 09:27:28;;;;;;;;;;;;;;;27.02;50.41;100250.95;1565173;92;20140;-72
2022/05/09 09:29:57;;;;;;;;;;;;;;;27.16;50.52;100251.78;1565733;92;20112;-72
2022/05/09 09:32:24;;;;;;;;;;;;;;;27.24;50.57;100248.46;1565912;92;20113;-70
2022/05/09 09:35:03;;;;;;;;;;;;;;;27.20;50.38;100245.97;1561550;90;20181;-71
2022/05/09 09:37:40;;;;;;;;;;;;;;;27.13;50.04;100255.09;1551718;90;21931;-72
2022/05/09 09:40:08;;;;;;;;;;;;;;;27.01;50.76;100252.05;1564661;92;20230;-71
2022/05/09 09:42:35;;;;;;;;;;;;;;;27.10;51.51;100252.33;1565930;91;20126;-72
2022/05/09 09:45:14;;;;;;;;;;;;;;;27.26;50.90;100248.45;1565316;90;20417;-71
2022/05/09 09:47:42;;;;;;;;;;;;;;;27.35;51.35;100252.10;1564660;92;20129;-72
2022/05/09 09:50:23;;;;;;;;;;;;;;;27.50;51.59;100249.86;1563878;92;20153;-72
2022/05/09 09:52:55;;;;;;;;;;;;;;;27.63;50.83;100246.53;1564428;92;20199;-71
2022/05/09 09:55:32;;;;;;;;;;;;;;;27.77;48.77;100251.78;1564711;92;20125;-72
2022/05/09 09:58:24;;;;;;;;;;;;;;;27.77;49.19;100237.89;1564693;92;20222;-72
2022/05/09 10:00:57;;;;;;;;;;;;;;;27.89;48.72;100239.52;1564982;92;20457;-72
2022/05/09 10:03:29;;;;;;;;;;;;;;;27.83;48.80;100236.78;1635859;88;20103;-72
2022/05/09 10:05:56;;;;;;;;;;;;;;;27.93;49.13;100247.62;1639967;88;20144;-70
2022/05/09 10:08:37;;;;;;;;;;;;;;;28.07;48.55;100244.52;1639777;88;20119;-69
2022/05/09 10:11:07;;;;;;;;;;;;;;;28.16;48.95;100249.76;1639365;88;20135;-70
2022/05/09 10:13:42;;;;;;;;;;;;;;;28.27;49.97;100244.16;1640280;86;20128;-71
2022/05/09 10:16:13;;;;;;;;;;;;;;;28.26;50.68;100254.46;1640633;88;20147;-72
2022/05/09 10:18:42;;;;;;;;;;;;;;;28.01;51.69;100259.53;1617898;88;20432;-72
2022/05/09 10:24:47;;;;;;;;;;;;;;;27.49;53.96;100269.86;1659674;85;20108;-70
2022/05/09 10:26:37;;;;;;;;;;;;;;;27.27;58.38;100280.69;1659209;86;20149;-71
2022/05/09 10:29:09;;;;;;;;;;;;;;;27.35;58.50;100288.19;1659224;87;20098;-71
2022/05/09 10:31:48;;;;;;;;;;;;;;;27.46;57.91;100293.48;1656089;87;20358;-70
2022/05/09 10:34:26;;;;;;;;;;;;;;;27.59;56.89;100284.31;1659134;87;20153;-69
2022/05/09 10:37:13;;;;;;;;;;;;;;;27.77;56.87;100284.30;1659038;87;20138;-71
2022/05/09 10:39:42;;;;;;;;;;;;;;;27.69;54.62;100290.40;1659381;87;20126;-70
2022/05/09 10:42:12;;;;;;;;;;;;;;;27.50;54.81;100290.12;1661779;86;20136;-70
2022/05/09 10:44:54;;;;;;;;;;;;;;;27.19;54.22;100292.86;1663271;86;20113;-70
2022/05/09 10:47:45;;;;;;;;;;;;;;;26.67;55.06;100304.41;1654828;86;20127;-71
2022/05/09 10:50:21;;;;;;;;;;;;;;;26.47;56.13;100296.78;1643803;87;20148;-71
2022/05/09 10:53:06;;;;;;;;;;;;;;;26.61;57.29;100291.58;1643389;87;20156;-72
2022/05/09 10:55:43;;;;;;;;;;;;;;;26.75;58.08;100294.15;1644703;87;20133;-71
2022/05/09 10:58:13;;;;;;;;;;;;;;;26.81;58.23;100288.91;1644263;87;20195;-70
2022/05/09 11:00:45;;;;;;;;;;;;;;;26.72;57.41;100294.72;1603168;90;20157;-71
2022/05/09 11:03:19;;;;;;;;;;;;;;;26.78;58.65;100294.17;1602512;90;20105;-71
2022/05/09 11:05:53;;;;;;;;;;;;;;;26.85;60.07;100308.05;1602829;90;20161;-70
2022/05/09 11:08:41;;;;;;;;;;;;;;;26.94;60.83;100296.44;1603551;90;20450;-72
2022/05/09 11:11:12;;;;;;;;;;;;;;;26.63;60.14;100305.50;1599542;90;20106;-72
2022/05/09 11:13:54;;;;;;;;;;;;;;;26.10;63.27;100308.79;1603729;90;20490;-71
2022/05/09 11:16:28;;;;;;;;;;;;;;;25.62;66.99;100318.42;1603735;90;20411;-70
2022/05/09 11:19:29;;;;;;;;;;;;;;;25.25;70.18;100315.58;1602805;90;20113;-72
2022/05/09 11:22:19;;;;;;;;;;;;;;;24.95;74.24;100319.13;1602919;90;20143;-72
2022/05/09 11:25:13;;;;;;;;;;;;;;;24.41;78.32;100327.28;1602748;90;20241;-72
2022/05/09 11:27:46;;;;;;;;;;;;;;;23.97;84.31;100329.41;1603461;90;20139;-70
2022/05/09 11:30:45;;;;;;;;;;;;;;;23.53;90.17;100328.40;1603003;90;20416;-73
2022/05/09 11:33:35;;;;;;;;;;;;;;;23.16;97.84;100325.56;1603339;90;20103;-73
2022/05/09 11:36:39;;;;;;;;;;;;;;;22.71;100.00;100324.38;1603003;90;20112;-73
2022/05/09 11:39:36;;;;;;;;;;;;;;;22.27;100.00;100314.91;1663670;86;20105;-71
2022/05/09 11:45:07;;;;;;;;;;;;;;;21.60;100.00;100318.30;1661925;86;20125;-73
2022/05/09 11:47:53;;;;;;;;;;;;;;;21.32;100.00;100311.20;1632799;87;20109;-70
2022/05/09 11:50:32;;;;;;;;;;;;;;;21.00;100.00;100297.70;1632872;88;20120;-70
2022/05/09 11:52:59;;;;;;;;;;;;;;;20.70;100.00;100301.31;1588284;90;20118;-70
2022/05/09 11:55:26;;;;;;;;;;;;;;;20.40;100.00;100299.88;1588136;90;20114;-70
2022/05/09 11:58:00;;;;;;;;;;;;;;;20.26;100.00;100300.02;1588610;90;20150;-70
2022/05/09 12:00:36;;;;;;;;;;;;;;;20.28;100.00;100305.28;1607856;89;20202;-71
2022/05/09 12:03:05;;;;;;;;;;;;;;;20.28;100.00;100309.39;1608045;89;20139;-71
2022/05/09 12:05:39;;;;;;;;;;;;;;;20.30;100.00;100311.37;1607978;88;20182;-68
2022/05/09 12:08:09;;;;;;;;;;;;;;;20.55;100.00;100314.58;1607708;89;20446;-69
2022/05/09 12:10:48;;;;;;;;;;;;;;;21.04;100.00;100318.19;1605580;88;20455;-71
2022/05/09 12:13:28;;;;;;;;;;;;;;;21.57;100.00;100316.02;1584151;89;20117;-72
2022/05/09 12:15:56;;;;;;;;;;;;;;;22.00;100.00;100308.49;1584279;91;20489;-73
2022/05/09 12:18:29;;;;;;;;;;;;;;;22.20;100.00;100301.22;1584227;91;20184;-71
2022/05/09 12:21:03;;;;;;;;;;;;;;;22.04;100.00;100308.30;1584690;91;20414;-70
2022/05/09 12:23:48;;;;;;;;;;;;;;;21.84;100.00;100313.35;1584798;91;20136;-70
2022/05/09 12:26:31;;;;;;;;;;;;;;;21.57;100.00;100313.27;1583899;91;20113;-70
2022/05/09 12:29:19;;;;;;;;;;;;;;;21.32;100.00;100312.57;1584429;91;20417;-71
2022/05/09 12:31:50;;;;;;;;;;;;;;;21.03;100.00;100321.99;1584056;91;20479;-69
2022/05/09 12:34:19;;;;;;;;;;;;;;;20.72;100.00;100314.28;1582444;90;20500;-70
2022/05/09 12:36:47;;;;;;;;;;;;;;;20.42;100.00;100320.53;1578318;91;20217;-70
2022/05/09 12:39:26;;;;;;;;;;;;;;;20.10;100.00;100329.45;1578260;90;20248;-71
2022/05/09 12:41:58;;;;;;;;;;;;;;;19.65;100.00;100333.72;1578241;91;20538;-71
2022/05/09 12:44:40;;;;;;;;;;;;;;;19.18;100.00;100315.42;1587981;90;20108;-72
2022/05/09 12:47:08;;;;;;;;;;;;;;;18.74;100.00;100298.23;1595730;90;20496;-70
2022/05/09 12:49:42;;;;;;;;;;;;;;;18.35;100.00;100245.34;1603230;89;20174;-70
2022/05/09 12:52:09;;;;;;;;;;;;;;;18.07;100.00;100214.19;1615680;89;20146;-72
2022/05/09 12:54:39;;;;;;;;;;;;;;;17.92;100.00;100186.25;1615307;89;20157;-72
2022/05/09 12:57:06;;;;;;;;;;;;;;;17.99;100.00;100151.53;1611274;87;20171;-71
2022/05/09 12:59:48;;;;;;;;;;;;;;;18.31;100.00;100125.55;1607301;89;20463;-71
2022/05/09 13:02:24;;;;;;;;;;;;;;;18.82;100.00;100108.69;1568716;92;20156;-70
2022/05/09 13:04:51;;;;;;;;;;;;;;;19.40;100.00;100126.70;1569211;92;20164;-72
2022/05/09 13:07:19;;;;;;;;;;;;;;;19.89;100.00;100148.23;1568886;92;20116;-70
2022/05/09 13:09:52;;;;;;;;;;;;;;;20.32;100.00;100159.59;1568301;91;20576;-70